Time;durP1;ratioP1;P1;durP2;ratioP2;P2;SDS_P1;SDS_P2;PMS_P1;PMS_P2;Temp;Humidity;BMP_temperature;BMP_pressure;BME280_temperature;BME280_humidity;BME280_pressure;Samples;Min_cycle;Max_cycle;Signal;HPM_P1;HPM_P2
2023/01/29 00:03:08;;;;;;;12.47;6.90;;;;;;;;;;12822153;19;20477;-68
2023/01/29 00:07:25;;;;;;;13.52;6.35;;;;;;;;;;12822655;19;20863;-68
2023/01/29 00:11:43;;;;;;;10.50;6.20;;;;;;;;;;12821958;19;20330;-69
2023/01/29 00:16:02;;;;;;;14.57;7.05;;;;;;;;;;12820572;19;20058;-69
2023/01/29 00:20:20;;;;;;;11.45;6.32;;;;;;;;;;12821298;19;20529;-69
2023/01/29 00:24:37;;;;;;;13.93;7.57;;;;;;;;;;12821499;19;20484;-69
2023/01/29 00:28:56;;;;;;;9.20;5.60;;;;;;;;;;12822002;19;20436;-68
2023/01/29 00:33:14;;;;;;;14.18;7.07;;;;;;;;;;12824091;19;20459;-68
2023/01/29 00:37:31;;;;;;;10.77;7.20;;;;;;;;;;12822157;19;20044;-68
2023/01/29 00:46:42;;;;;;;10.77;6.70;;;;;;;;;;12819210;19;20019;-69
2023/01/29 00:51:01;;;;;;;10.60;5.80;;;;;;;;;;12825446;19;20317;-69
2023/01/29 00:55:19;;;;;;;9.40;6.65;;;;;;;;;;12819519;19;20443;-69
2023/01/29 00:59:37;;;;;;;11.05;6.25;;;;;;;;;;12823075;19;20404;-68
2023/01/29 01:03:54;;;;;;;8.43;5.73;;;;;;;;;;12820700;19;20355;-68
2023/01/29 01:13:18;;;;;;;9.40;5.07;;;;;;;;;;12820247;19;20383;-69
2023/01/29 01:17:35;;;;;;;6.93;4.93;;;;;;;;;;12817665;19;20090;-68
2023/01/29 01:21:53;;;;;;;7.57;4.03;;;;;;;;;;12819034;19;20398;-69
2023/01/29 01:26:11;;;;;;;6.35;4.30;;;;;;;;;;12821568;19;20464;-69
2023/01/29 01:30:28;;;;;;;7.97;4.20;;;;;;;;;;12820457;19;20375;-69
2023/01/29 01:34:46;;;;;;;6.68;4.63;;;;;;;;;;12816848;19;20019;-70
2023/01/29 01:39:03;;;;;;;8.75;5.10;;;;;;;;;;12817660;19;20371;-69
2023/01/29 01:43:21;;;;;;;6.47;4.50;;;;;;;;;;12821444;19;21226;-68
2023/01/29 01:47:45;;;;;;;8.17;4.17;;;;;;;;;;12818026;19;20363;-69
2023/01/29 01:52:03;;;;;;;6.22;3.80;;;;;;;;;;12818913;19;20117;-69
2023/01/29 01:56:27;;;;;;;10.40;5.50;;;;;;;;;;12817534;19;20583;-69
2023/01/29 02:00:45;;;;;;;6.95;4.20;;;;;;;;;;12815661;19;20544;-69
2023/01/29 02:09:47;;;;;;;7.18;4.15;;;;;;;;;;12820824;19;20256;-69
2023/01/29 02:14:06;;;;;;;8.05;3.95;;;;;;;;;;12815313;19;20354;-69
2023/01/29 02:18:23;;;;;;;;;;;;;;;;;;12822040;19;20531;-69
2023/01/29 02:23:13;;;;;;;7.83;4.60;;;;;;;;;;12830456;19;20067;-68
2023/01/29 02:28:17;;;;;;;7.97;4.35;;;;;;;;;;12828216;19;20469;-69
2023/01/29 02:32:53;;;;;;;5.07;3.28;;;;;;;;;;12829011;19;20489;-69
2023/01/29 02:37:12;;;;;;;3.97;2.70;;;;;;;;;;12826065;19;20594;-68
2023/01/29 02:41:44;;;;;;;5.78;2.72;;;;;;;;;;12828400;19;20028;-69
2023/01/29 02:46:31;;;;;;;4.63;2.75;;;;;;;;;;12826280;19;20469;-69
2023/01/29 02:51:02;;;;;;;6.75;3.10;;;;;;;;;;12830105;19;20476;-68
2023/01/29 02:55:47;;;;;;;4.05;2.63;;;;;;;;;;12826845;19;20793;-69
2023/01/29 03:00:37;;;;;;;3.55;2.45;;;;;;;;;;12825785;19;20033;-69
2023/01/29 03:05:01;;;;;;;4.88;3.00;;;;;;;;;;12826165;19;20461;-68
2023/01/29 03:09:33;;;;;;;6.40;3.22;;;;;;;;;;12824593;19;20022;-68
2023/01/29 03:14:12;;;;;;;6.72;3.80;;;;;;;;;;12825792;19;20344;-69
2023/01/29 03:18:42;;;;;;;7.80;3.90;;;;;;;;;;12826072;19;20436;-69
2023/01/29 03:23:09;;;;;;;4.68;3.28;;;;;;;;;;12824420;19;20010;-69
2023/01/29 03:32:37;;;;;;;5.18;3.33;;;;;;;;;;12827275;19;20040;-69
2023/01/29 03:37:04;;;;;;;5.85;3.22;;;;;;;;;;12827831;19;20010;-69
2023/01/29 03:41:33;;;;;;;6.17;3.63;;;;;;;;;;12822215;19;20433;-69
2023/01/29 03:46:21;;;;;;;7.40;3.03;;;;;;;;;;12822877;19;20105;-69
2023/01/29 03:51:00;;;;;;;3.83;2.80;;;;;;;;;;12825945;19;20493;-69
2023/01/29 03:55:54;;;;;;;3.78;2.53;;;;;;;;;;12823632;19;20325;-68
2023/01/29 04:00:20;;;;;;;3.83;2.78;;;;;;;;;;12823261;19;20370;-69
2023/01/29 04:04:40;;;;;;;4.25;2.67;;;;;;;;;;12824138;19;20397;-68
2023/01/29 04:09:21;;;;;;;3.90;2.35;;;;;;;;;;12823279;19;20418;-67
2023/01/29 04:13:38;;;;;;;4.68;2.92;;;;;;;;;;12821758;19;20103;-69
2023/01/29 04:17:56;;;;;;;5.50;2.30;;;;;;;;;;12824188;19;20366;-69
2023/01/29 04:22:24;;;;;;;4.90;2.85;;;;;;;;;;12821886;19;20751;-69
2023/01/29 04:26:59;;;;;;;3.67;2.63;;;;;;;;;;12824690;19;20500;-69
2023/01/29 04:31:18;;;;;;;3.17;2.45;;;;;;;;;;12823385;19;20768;-68
2023/01/29 04:36:13;;;;;;;3.10;2.25;;;;;;;;;;12823553;19;20493;-68
2023/01/29 04:40:56;;;;;;;2.92;2.15;;;;;;;;;;12822205;19;20587;-69
2023/01/29 04:45:34;;;;;;;3.15;1.67;;;;;;;;;;12819394;19;20485;-69
2023/01/29 04:50:16;;;;;;;5.25;2.55;;;;;;;;;;12823273;19;20472;-69
2023/01/29 04:55:02;;;;;;;5.13;2.38;;;;;;;;;;12820361;19;20382;-69
2023/01/29 04:59:32;;;;;;;3.72;2.08;;;;;;;;;;12816878;19;20465;-69
2023/01/29 05:03:53;;;;;;;3.92;2.03;;;;;;;;;;12818070;19;20380;-69
2023/01/29 05:08:14;;;;;;;4.60;1.73;;;;;;;;;;12817611;19;20027;-69
2023/01/29 05:12:34;;;;;;;4.68;1.88;;;;;;;;;;12819954;19;20367;-69
2023/01/29 05:16:55;;;;;;;3.25;1.90;;;;;;;;;;12822873;19;20066;-69
2023/01/29 05:21:12;;;;;;;3.22;2.33;;;;;;;;;;12821257;19;20086;-69
2023/01/29 05:25:32;;;;;;;3.35;2.03;;;;;;;;;;12819119;19;20497;-69
2023/01/29 05:29:50;;;;;;;2.55;1.85;;;;;;;;;;12819335;19;20478;-69
2023/01/29 05:34:07;;;;;;;2.53;1.50;;;;;;;;;;12821214;19;20343;-68
2023/01/29 05:38:25;;;;;;;2.03;1.67;;;;;;;;;;12819696;19;20615;-68
2023/01/29 05:42:43;;;;;;;2.97;2.03;;;;;;;;;;12821269;19;20735;-70
2023/01/29 05:47:01;;;;;;;2.55;1.80;;;;;;;;;;12817274;19;20536;-68
2023/01/29 05:51:19;;;;;;;5.22;2.42;;;;;;;;;;12816935;19;20024;-69
2023/01/29 05:55:36;;;;;;;4.07;2.28;;;;;;;;;;12827459;19;20095;-69
2023/01/29 05:59:54;;;;;;;4.35;1.95;;;;;;;;;;12807407;19;20314;-69
2023/01/29 06:04:11;;;;;;;3.75;1.80;;;;;;;;;;12829988;19;20054;-68
2023/01/29 06:08:29;;;;;;;3.70;2.07;;;;;;;;;;12832038;19;20047;-69
2023/01/29 06:12:47;;;;;;;3.10;1.98;;;;;;;;;;12830108;19;20744;-68
2023/01/29 06:17:05;;;;;;;5.80;3.17;;;;;;;;;;12829031;19;20418;-69
2023/01/29 06:21:22;;;;;;;12.32;5.35;;;;;;;;;;12828233;19;20469;-69
2023/01/29 06:25:40;;;;;;;11.33;5.30;;;;;;;;;;12827239;19;20445;-69
2023/01/29 06:29:57;;;;;;;10.82;5.75;;;;;;;;;;12829819;19;20094;-69
2023/01/29 06:34:15;;;;;;;18.20;8.10;;;;;;;;;;12826393;19;20010;-69
2023/01/29 06:38:33;;;;;;;8.98;4.78;;;;;;;;;;12825607;19;20070;-68
2023/01/29 06:42:50;;;;;;;10.30;5.50;;;;;;;;;;12825043;19;20360;-68
2023/01/29 06:47:08;;;;;;;6.65;4.10;;;;;;;;;;12825916;19;20354;-68
2023/01/29 06:51:26;;;;;;;7.07;3.92;;;;;;;;;;12824206;19;20375;-68
2023/01/29 06:55:50;;;;;;;6.25;3.40;;;;;;;;;;12825846;19;20368;-69
2023/01/29 07:00:09;;;;;;;11.93;5.00;;;;;;;;;;12822565;19;20460;-68
2023/01/29 07:04:27;;;;;;;12.68;7.18;;;;;;;;;;12824542;19;20425;-69
2023/01/29 07:08:44;;;;;;;9.25;4.47;;;;;;;;;;12826357;19;20330;-69
2023/01/29 07:13:02;;;;;;;20.60;9.05;;;;;;;;;;12826679;19;20367;-68
2023/01/29 07:17:20;;;;;;;25.67;10.93;;;;;;;;;;12824671;19;20438;-68
2023/01/29 07:21:37;;;;;;;12.10;6.82;;;;;;;;;;12825772;19;20529;-68
2023/01/29 07:25:55;;;;;;;6.57;3.53;;;;;;;;;;12824728;19;20351;-68
2023/01/29 07:30:13;;;;;;;6.90;3.75;;;;;;;;;;12827369;19;20441;-67
2023/01/29 07:34:31;;;;;;;8.80;4.18;;;;;;;;;;12826835;19;20379;-68
2023/01/29 07:38:50;;;;;;;7.55;3.90;;;;;;;;;;12825604;19;20534;-68
2023/01/29 07:43:08;;;;;;;6.13;3.63;;;;;;;;;;12822190;19;20648;-68
2023/01/29 07:47:26;;;;;;;7.15;4.25;;;;;;;;;;12819316;19;20425;-68
2023/01/29 07:51:43;;;;;;;8.27;4.23;;;;;;;;;;12821389;19;20481;-68
2023/01/29 07:56:01;;;;;;;6.90;4.13;;;;;;;;;;12817921;19;20396;-69
2023/01/29 08:00:19;;;;;;;11.60;5.00;;;;;;;;;;12819232;19;20042;-67
2023/01/29 08:04:37;;;;;;;;;;;;;;;;;;12821662;19;20477;-69
2023/01/29 08:08:56;;;;;;;9.20;5.22;;;;;;;;;;12817667;19;20322;-68
2023/01/29 08:13:14;;;;;;;7.60;4.75;;;;;;;;;;12820239;19;20010;-68
2023/01/29 08:17:32;;;;;;;9.65;4.60;;;;;;;;;;12815237;19;20011;-69
2023/01/29 08:21:49;;;;;;;7.10;4.50;;;;;;;;;;12819184;19;20010;-69
2023/01/29 08:26:07;;;;;;;8.75;4.53;;;;;;;;;;12818610;19;20478;-69
2023/01/29 08:30:26;;;;;;;;;;;;;;;;;;12817705;19;20529;-69
2023/01/29 08:34:44;;;;;;;7.30;4.40;;;;;;;;;;12818128;19;20284;-70
2023/01/29 08:39:02;;;;;;;9.52;4.68;;;;;;;;;;12818133;19;21028;-68
2023/01/29 08:43:19;;;;;;;10.60;4.95;;;;;;;;;;12815791;19;20433;-69
2023/01/29 08:47:36;;;;;;;;;;;;;;;;;;12677447;19;2911529;-70
2023/01/29 08:51:55;;;;;;;9.73;4.72;;;;;;;;;;12822701;19;19983;-69
2023/01/29 08:56:15;;;;;;;8.77;4.05;;;;;;;;;;12820945;19;20506;-69
2023/01/29 09:00:33;;;;;;;5.28;3.55;;;;;;;;;;12817928;19;20367;-68
2023/01/29 09:04:51;;;;;;;15.20;7.97;;;;;;;;;;12822040;19;20366;-69
2023/01/29 09:09:09;;;;;;;10.23;4.63;;;;;;;;;;12820383;19;20326;-69
2023/01/29 09:13:27;;;;;;;10.77;5.22;;;;;;;;;;12820945;19;20018;-69
2023/01/29 09:17:45;;;;;;;12.52;5.60;;;;;;;;;;12818733;19;20113;-68
2023/01/29 09:22:02;;;;;;;7.72;4.70;;;;;;;;;;12819079;19;20497;-68
2023/01/29 09:26:20;;;;;;;9.30;4.97;;;;;;;;;;12817382;19;20556;-68
2023/01/29 09:30:38;;;;;;;7.50;4.05;;;;;;;;;;12817866;19;20429;-69
2023/01/29 09:34:56;;;;;;;16.02;6.93;;;;;;;;;;12813862;19;20090;-68
2023/01/29 09:39:14;;;;;;;6.65;2.70;;;;;;;;;;12815838;19;20472;-68
2023/01/29 09:43:51;;;;;;;6.07;3.63;;;;;;;;;;12819588;19;20481;-68
2023/01/29 09:48:10;;;;;;;;;;;;;;;;;;12819474;19;20582;-69
2023/01/29 09:52:34;;;;;;;;;;;;;;;;;;12817228;19;20021;-68
2023/01/29 09:56:55;;;;;;;7.00;3.60;;;;;;;;;;12815288;19;20342;-69
2023/01/29 10:01:24;;;;;;;5.82;3.28;;;;;;;;;;12815809;19;20497;-70
2023/01/29 10:06:11;;;;;;;7.53;4.22;;;;;;;;;;12817453;19;20015;-69
2023/01/29 10:11:09;;;;;;;6.18;3.15;;;;;;;;;;12817335;19;20481;-68
2023/01/29 10:16:00;;;;;;;5.40;3.47;;;;;;;;;;12815916;19;20504;-68
2023/01/29 10:21:01;;;;;;;7.13;3.78;;;;;;;;;;12816754;19;20423;-69
2023/01/29 10:25:21;;;;;;;13.65;6.43;;;;;;;;;;12814758;19;20371;-70
2023/01/29 10:29:42;;;;;;;6.82;3.47;;;;;;;;;;12814618;19;20682;-70
2023/01/29 10:34:09;;;;;;;13.63;7.05;;;;;;;;;;12811277;19;20430;-70
2023/01/29 10:38:38;;;;;;;14.63;6.65;;;;;;;;;;12813616;19;20464;-68
2023/01/29 10:43:30;;;;;;;12.85;6.40;;;;;;;;;;12824718;19;20731;-68
2023/01/29 10:47:53;;;;;;;10.57;5.60;;;;;;;;;;12827474;19;20764;-70
2023/01/29 10:52:54;;;;;;;22.15;8.63;;;;;;;;;;12824845;19;20465;-68
2023/01/29 10:57:36;;;;;;;16.63;8.07;;;;;;;;;;12823444;19;20498;-70
2023/01/29 11:02:02;;;;;;;9.13;4.22;;;;;;;;;;12826258;19;20490;-69
2023/01/29 11:06:28;;;;;;;10.00;4.40;;;;;;;;;;12827150;19;20500;-69
2023/01/29 11:10:57;;;;;;;9.90;5.40;;;;;;;;;;12826421;19;20473;-69
2023/01/29 11:15:25;;;;;;;14.57;7.55;;;;;;;;;;12823330;19;20020;-70
2023/01/29 11:19:46;;;;;;;7.78;4.57;;;;;;;;;;12826570;19;20090;-68
2023/01/29 11:24:17;;;;;;;15.43;6.95;;;;;;;;;;12824782;19;20501;-69
2023/01/29 11:28:46;;;;;;;14.98;6.47;;;;;;;;;;12825774;19;20335;-70
2023/01/29 11:33:07;;;;;;;14.73;7.90;;;;;;;;;;12824912;19;20797;-69
2023/01/29 11:37:34;;;;;;;18.95;8.50;;;;;;;;;;12824118;19;20074;-69
2023/01/29 11:42:02;;;;;;;27.27;11.40;;;;;;;;;;12822662;19;20473;-70
2023/01/29 11:46:20;;;;;;;35.15;16.80;;;;;;;;;;12823137;19;20481;-69
2023/01/29 11:50:38;;;;;;;31.67;14.10;;;;;;;;;;12822648;19;20485;-69
2023/01/29 11:55:01;;;;;;;24.35;11.38;;;;;;;;;;12825372;19;20467;-69
2023/01/29 11:59:35;;;;;;;25.63;13.38;;;;;;;;;;12825306;19;20763;-69
2023/01/29 12:03:53;;;;;;;44.13;16.42;;;;;;;;;;12825200;19;20388;-68
2023/01/29 12:08:16;;;;;;;36.33;16.17;;;;;;;;;;12821166;19;20375;-68
2023/01/29 12:12:41;;;;;;;29.42;14.75;;;;;;;;;;12822612;19;20372;-68
2023/01/29 12:17:14;;;;;;;32.85;14.48;;;;;;;;;;12818924;19;20476;-69
2023/01/29 12:21:59;;;;;;;37.20;18.25;;;;;;;;;;12819822;19;20094;-69
2023/01/29 12:26:24;;;;;;;;;;;;;;;;;;12820571;19;20369;-69
2023/01/29 12:31:13;;;;;;;18.92;10.23;;;;;;;;;;12823302;19;20302;-68
2023/01/29 12:36:12;;;;;;;22.50;10.77;;;;;;;;;;12821172;19;20367;-69
2023/01/29 12:40:46;;;;;;;18.15;10.38;;;;;;;;;;12820428;19;20481;-69
2023/01/29 12:45:09;;;;;;;28.30;15.10;;;;;;;;;;12818789;19;20434;-69
2023/01/29 12:49:32;;;;;;;28.02;14.52;;;;;;;;;;12816786;19;20077;-69
2023/01/29 12:54:06;;;;;;;31.65;15.43;;;;;;;;;;12823387;19;20916;-70
2023/01/29 12:58:27;;;;;;;23.63;12.52;;;;;;;;;;12818332;19;20344;-68
2023/01/29 13:03:19;;;;;;;17.52;9.40;;;;;;;;;;12818706;19;20322;-69
2023/01/29 13:07:44;;;;;;;21.77;11.75;;;;;;;;;;12820984;19;20309;-69
2023/01/29 13:12:15;;;;;;;48.88;15.85;;;;;;;;;;12819621;19;20359;-69
2023/01/29 13:16:40;;;;;;;21.05;10.65;;;;;;;;;;12820272;19;20477;-70
2023/01/29 13:20:59;;;;;;;17.58;9.57;;;;;;;;;;12820476;19;20370;-68
2023/01/29 13:25:19;;;;;;;16.25;8.68;;;;;;;;;;12818584;19;20630;-69
2023/01/29 13:29:36;;;;;;;26.90;12.98;;;;;;;;;;12820165;19;20085;-68
2023/01/29 13:34:08;;;;;;;78.47;32.45;;;;;;;;;;12818646;19;20023;-68
2023/01/29 13:38:32;;;;;;;55.60;28.63;;;;;;;;;;12814930;19;20498;-70
2023/01/29 13:42:53;;;;;;;48.15;22.25;;;;;;;;;;12817534;19;20387;-68
2023/01/29 13:47:23;;;;;;;47.33;22.05;;;;;;;;;;12816656;19;20366;-69
2023/01/29 13:51:41;;;;;;;45.35;21.30;;;;;;;;;;12817955;19;20375;-68
2023/01/29 13:56:36;;;;;;;41.35;20.90;;;;;;;;;;12821235;19;20095;-69
2023/01/29 14:00:55;;;;;;;32.83;18.27;;;;;;;;;;12817219;19;20410;-68
2023/01/29 14:05:30;;;;;;;37.05;23.05;;;;;;;;;;12817650;19;20476;-69
2023/01/29 14:09:48;;;;;;;25.00;12.45;;;;;;;;;;12816619;19;20394;-69
2023/01/29 14:14:50;;;;;;;25.15;14.80;;;;;;;;;;12821410;19;20359;-69
2023/01/29 14:19:18;;;;;;;53.47;23.45;;;;;;;;;;12830283;19;20022;-69
2023/01/29 14:23:49;;;;;;;37.50;18.92;;;;;;;;;;12829888;19;20485;-69
2023/01/29 14:28:19;;;;;;;47.50;22.35;;;;;;;;;;12828710;19;20371;-70
2023/01/29 14:32:39;;;;;;;37.08;19.85;;;;;;;;;;12832771;19;20334;-70
2023/01/29 14:37:14;;;;;;;24.92;13.02;;;;;;;;;;12828644;19;20437;-70
2023/01/29 14:41:35;;;;;;;34.45;18.92;;;;;;;;;;12828143;19;20491;-69
2023/01/29 14:45:52;;;;;;;28.42;14.52;;;;;;;;;;12827869;19;20464;-69
2023/01/29 14:50:28;;;;;;;31.83;14.48;;;;;;;;;;12828832;19;20006;-69
2023/01/29 14:54:48;;;;;;;34.95;13.57;;;;;;;;;;12828311;19;20493;-68
2023/01/29 14:59:19;;;;;;;27.40;12.75;;;;;;;;;;12828507;19;20350;-69
2023/01/29 15:03:48;;;;;;;40.22;17.63;;;;;;;;;;12829630;19;20363;-69
2023/01/29 15:08:36;;;;;;;55.53;26.00;;;;;;;;;;12828265;19;20368;-69
2023/01/29 15:13:17;;;;;;;52.90;25.10;;;;;;;;;;12825305;19;20013;-68
2023/01/29 15:17:53;;;;;;;37.13;19.08;;;;;;;;;;12823912;19;20435;-69
2023/01/29 15:22:20;;;;;;;41.17;19.98;;;;;;;;;;12826228;19;20432;-69
2023/01/29 15:26:41;;;;;;;29.00;15.45;;;;;;;;;;12827760;19;20714;-68
2023/01/29 15:31:04;;;;;;;43.38;21.25;;;;;;;;;;12828765;19;20520;-69
2023/01/29 15:35:34;;;;;;;32.55;17.83;;;;;;;;;;12825259;19;20082;-69
2023/01/29 15:39:53;;;;;;;42.40;18.70;;;;;;;;;;12823612;19;20094;-68
2023/01/29 15:44:16;;;;;;;49.55;20.88;;;;;;;;;;12823430;19;20457;-69
2023/01/29 15:48:39;;;;;;;29.50;15.93;;;;;;;;;;12823990;19;20496;-68
2023/01/29 15:53:02;;;;;;;30.02;14.40;;;;;;;;;;12825060;19;20031;-70
2023/01/29 15:57:29;;;;;;;26.50;13.60;;;;;;;;;;12822569;19;20425;-69
2023/01/29 16:01:47;;;;;;;27.10;13.75;;;;;;;;;;12822105;19;20019;-70
2023/01/29 16:06:06;;;;;;;33.22;16.75;;;;;;;;;;12825016;19;20362;-69
2023/01/29 16:10:27;;;;;;;38.17;19.15;;;;;;;;;;12827628;19;20310;-69
2023/01/29 16:14:47;;;;;;;24.88;14.63;;;;;;;;;;12822420;19;20011;-69
2023/01/29 16:19:20;;;;;;;36.80;15.88;;;;;;;;;;12821463;19;20375;-69
2023/01/29 16:23:47;;;;;;;24.05;12.75;;;;;;;;;;12821423;19;20010;-68
2023/01/29 16:28:06;;;;;;;36.37;15.07;;;;;;;;;;12819075;19;20460;-69
2023/01/29 16:32:24;;;;;;;27.67;15.07;;;;;;;;;;12820368;19;20433;-68
2023/01/29 16:36:47;;;;;;;28.57;15.00;;;;;;;;;;12815972;19;20119;-68
2023/01/29 16:41:29;;;;;;;28.95;15.80;;;;;;;;;;12821544;19;20401;-69
2023/01/29 16:46:14;;;;;;;23.20;11.82;;;;;;;;;;12817307;19;20665;-69
2023/01/29 16:50:35;;;;;;;37.55;17.38;;;;;;;;;;12820870;19;20355;-69
2023/01/29 16:55:12;;;;;;;35.58;14.75;;;;;;;;;;12818913;19;20343;-69
2023/01/29 16:59:38;;;;;;;19.85;10.35;;;;;;;;;;12822940;19;20368;-69
2023/01/29 17:04:05;;;;;;;26.55;11.45;;;;;;;;;;12824150;19;20018;-68
2023/01/29 17:08:32;;;;;;;91.03;43.50;;;;;;;;;;12819269;19;20396;-68
2023/01/29 17:12:54;;;;;;;43.55;21.45;;;;;;;;;;12818206;19;20505;-69
2023/01/29 17:17:17;;;;;;;33.42;17.75;;;;;;;;;;12818839;19;20379;-69
2023/01/29 17:21:35;;;;;;;46.65;18.58;;;;;;;;;;12819641;19;20365;-69
2023/01/29 17:25:52;;;;;;;31.33;15.30;;;;;;;;;;12822678;19;20390;-69
2023/01/29 17:30:15;;;;;;;35.28;17.02;;;;;;;;;;12817127;19;20489;-69
2023/01/29 17:34:32;;;;;;;50.33;18.27;;;;;;;;;;12818479;19;20473;-69
2023/01/29 17:38:50;;;;;;;37.77;16.37;;;;;;;;;;12818450;19;20383;-68
2023/01/29 17:43:10;;;;;;;35.47;16.38;;;;;;;;;;12819106;19;20500;-67
2023/01/29 17:47:28;;;;;;;30.92;13.88;;;;;;;;;;12819553;19;20378;-68
2023/01/29 17:51:45;;;;;;;28.65;14.30;;;;;;;;;;12829257;19;20371;-69
2023/01/29 17:56:03;;;;;;;27.53;12.30;;;;;;;;;;12830003;19;20462;-69
2023/01/29 18:00:23;;;;;;;42.88;21.40;;;;;;;;;;12829555;19;20916;-69
2023/01/29 18:04:40;;;;;;;30.95;14.77;;;;;;;;;;12829461;19;20413;-68
2023/01/29 18:08:58;;;;;;;25.50;12.43;;;;;;;;;;12827732;19;20481;-70
2023/01/29 18:13:16;;;;;;;29.92;14.90;;;;;;;;;;12830834;19;20419;-69
2023/01/29 18:17:34;;;;;;;42.95;17.27;;;;;;;;;;12830561;19;20487;-68
2023/01/29 18:21:53;;;;;;;41.50;16.67;;;;;;;;;;12829099;19;20037;-68
2023/01/29 18:26:11;;;;;;;39.47;18.30;;;;;;;;;;12826082;19;20090;-69
2023/01/29 18:30:29;;;;;;;17.20;8.32;;;;;;;;;;12827154;19;20355;-68
2023/01/29 18:34:46;;;;;;;60.28;33.33;;;;;;;;;;12828782;19;20437;-68
2023/01/29 18:39:04;;;;;;;26.73;12.10;;;;;;;;;;12829066;19;20087;-69
2023/01/29 18:43:23;;;;;;;32.20;15.50;;;;;;;;;;12827337;19;20011;-68
2023/01/29 18:47:48;;;;;;;26.80;14.70;;;;;;;;;;12826227;19;20011;-69
2023/01/29 18:52:06;;;;;;;34.63;17.77;;;;;;;;;;12826378;19;20027;-68
2023/01/29 18:56:24;;;;;;;34.65;17.13;;;;;;;;;;12825900;19;20353;-67
2023/01/29 19:00:42;;;;;;;40.35;23.73;;;;;;;;;;12828408;19;20919;-68
2023/01/29 19:05:00;;;;;;;214.20;92.80;;;;;;;;;;12825003;19;20093;-68
2023/01/29 19:09:18;;;;;;;39.08;20.73;;;;;;;;;;12825512;19;20919;-69
2023/01/29 19:13:36;;;;;;;39.90;22.85;;;;;;;;;;12825336;19;20449;-68
2023/01/29 19:17:55;;;;;;;32.47;17.05;;;;;;;;;;12824018;19;20085;-69
2023/01/29 19:22:15;;;;;;;68.50;27.65;;;;;;;;;;12823146;19;20489;-68
2023/01/29 19:26:33;;;;;;;35.92;15.93;;;;;;;;;;12827516;19;20018;-69
2023/01/29 19:30:50;;;;;;;26.27;13.18;;;;;;;;;;12827124;19;20066;-69
2023/01/29 19:35:08;;;;;;;23.05;11.68;;;;;;;;;;12823807;19;20375;-68
2023/01/29 19:39:31;;;;;;;20.02;10.50;;;;;;;;;;12823948;19;20023;-68
2023/01/29 19:43:49;;;;;;;19.50;10.70;;;;;;;;;;12822947;19;20392;-68
2023/01/29 19:48:06;;;;;;;32.97;15.80;;;;;;;;;;12823901;19;20489;-69
2023/01/29 19:52:34;;;;;;;35.75;17.30;;;;;;;;;;12824788;19;20481;-68
2023/01/29 19:57:07;;;;;;;39.80;17.52;;;;;;;;;;12821237;19;20583;-68
2023/01/29 20:01:28;;;;;;;;;;;;;;;;;;12829137;19;20480;-69
2023/01/29 20:05:45;;;;;;;48.60;22.30;;;;;;;;;;12826890;19;20329;-69
2023/01/29 20:10:08;;;;;;;55.35;27.20;;;;;;;;;;12824031;19;20514;-68
2023/01/29 20:14:26;;;;;;;41.42;21.23;;;;;;;;;;12821498;19;20387;-68
2023/01/29 20:18:43;;;;;;;50.53;25.60;;;;;;;;;;12823697;19;20015;-68
2023/01/29 20:23:01;;;;;;;26.25;11.90;;;;;;;;;;12822749;19;20461;-69
2023/01/29 20:27:18;;;;;;;34.73;18.07;;;;;;;;;;12821403;19;20343;-69
2023/01/29 20:31:36;;;;;;;24.40;13.68;;;;;;;;;;12823105;19;20530;-68
2023/01/29 20:35:57;;;;;;;29.30;15.25;;;;;;;;;;12819382;19;20480;-67
2023/01/29 20:40:15;;;;;;;33.88;18.30;;;;;;;;;;12823962;19;20010;-69
2023/01/29 20:44:33;;;;;;;;;;;;;;;;;;12821930;19;20389;-68
2023/01/29 20:48:52;;;;;;;27.23;13.00;;;;;;;;;;12821964;19;19923;-68
2023/01/29 20:53:10;;;;;;;24.92;12.35;;;;;;;;;;12820303;19;20389;-68
2023/01/29 20:57:28;;;;;;;27.60;12.05;;;;;;;;;;12820366;19;20102;-69
2023/01/29 21:01:46;;;;;;;27.02;13.40;;;;;;;;;;12819989;19;20035;-68
2023/01/29 21:06:04;;;;;;;18.80;10.80;;;;;;;;;;12818445;19;20309;-69
2023/01/29 21:10:22;;;;;;;25.23;13.85;;;;;;;;;;12823120;19;20460;-69
2023/01/29 21:14:40;;;;;;;37.38;17.08;;;;;;;;;;12822703;19;20485;-68
2023/01/29 21:18:58;;;;;;;46.70;17.50;;;;;;;;;;12816805;19;20363;-68
2023/01/29 21:23:16;;;;;;;301.60;104.03;;;;;;;;;;12814384;19;20864;-68
2023/01/29 21:27:34;;;;;;;52.20;21.88;;;;;;;;;;12813583;19;20376;-69
2023/01/29 21:31:52;;;;;;;34.47;14.75;;;;;;;;;;12817143;19;20464;-68
2023/01/29 21:36:10;;;;;;;38.22;16.58;;;;;;;;;;12816946;19;20514;-68
2023/01/29 21:40:29;;;;;;;29.23;13.88;;;;;;;;;;12819379;19;20453;-68
2023/01/29 21:44:46;;;;;;;34.05;16.20;;;;;;;;;;12819721;19;20018;-67
2023/01/29 21:49:04;;;;;;;29.92;13.95;;;;;;;;;;12816987;19;20108;-69
2023/01/29 21:53:22;;;;;;;34.33;14.73;;;;;;;;;;12815164;19;20590;-68
2023/01/29 21:57:41;;;;;;;32.65;14.88;;;;;;;;;;12815955;19;20271;-68
2023/01/29 22:01:59;;;;;;;50.95;17.33;;;;;;;;;;12817239;19;20489;-67
2023/01/29 22:06:17;;;;;;;28.23;14.30;;;;;;;;;;12816529;19;20505;-68
2023/01/29 22:10:36;;;;;;;;;;;;;;;;;;12820404;19;20485;-68
2023/01/29 22:14:54;;;;;;;24.10;13.07;;;;;;;;;;12818888;19;19969;-68
2023/01/29 22:19:12;;;;;;;30.23;14.10;;;;;;;;;;12816078;19;20481;-68
2023/01/29 22:23:31;;;;;;;23.30;13.10;;;;;;;;;;12813522;19;20625;-70
2023/01/29 22:27:49;;;;;;;26.40;13.32;;;;;;;;;;12817533;19;20465;-68
2023/01/29 22:32:08;;;;;;;25.20;13.40;;;;;;;;;;12813399;19;20010;-68
2023/01/29 22:36:26;;;;;;;26.55;12.77;;;;;;;;;;12820162;19;20493;-68
2023/01/29 22:40:55;;;;;;;33.20;15.70;;;;;;;;;;12830341;19;20355;-69
2023/01/29 22:45:12;;;;;;;31.30;14.77;;;;;;;;;;12828156;19;20563;-67
2023/01/29 22:49:30;;;;;;;32.50;13.68;;;;;;;;;;12829694;19;20010;-67
2023/01/29 22:53:55;;;;;;;28.73;13.10;;;;;;;;;;12824854;19;20499;-69
2023/01/29 22:58:13;;;;;;;26.70;12.48;;;;;;;;;;12823600;19;20367;-67
2023/01/29 23:02:30;;;;;;;32.50;13.60;;;;;;;;;;12826926;19;20501;-68
2023/01/29 23:06:48;;;;;;;23.02;11.85;;;;;;;;;;12828955;19;20441;-69
2023/01/29 23:11:16;;;;;;;24.45;12.05;;;;;;;;;;12826339;19;20635;-68
2023/01/29 23:15:34;;;;;;;20.63;10.43;;;;;;;;;;12827063;19;20489;-69
2023/01/29 23:19:51;;;;;;;24.97;11.63;;;;;;;;;;12825608;19;20014;-69
2023/01/29 23:24:09;;;;;;;25.52;12.20;;;;;;;;;;12825300;19;20358;-69
2023/01/29 23:28:27;;;;;;;20.80;10.80;;;;;;;;;;12823774;19;20022;-69
2023/01/29 23:32:44;;;;;;;26.97;12.30;;;;;;;;;;12826698;19;20498;-69
2023/01/29 23:37:02;;;;;;;21.48;11.45;;;;;;;;;;12823311;19;20748;-68
2023/01/29 23:41:20;;;;;;;16.38;9.35;;;;;;;;;;12827560;19;20351;-68
2023/01/29 23:45:37;;;;;;;19.00;10.27;;;;;;;;;;12825959;19;20363;-68
2023/01/29 23:49:55;;;;;;;15.60;10.17;;;;;;;;;;12824801;19;20307;-68
2023/01/29 23:54:13;;;;;;;17.65;10.43;;;;;;;;;;12823765;19;20042;-68
2023/01/29 23:58:31;;;;;;;21.58;10.20;;;;;;;;;;12824820;19;20409;-69
